METAR Data
IDs: Format: Raw Decoded Include TAF

Data at: 0336 UTC 25 Jan 2020

PASK 250256Z AUTO 21004KT 8SM CLR M29/M32 A3021 RMK AO2 SLP226 6//// T12891317 53003 FZRANO
PASK 250156Z AUTO 25007KT 10SM CLR M28/M31 A3020 RMK AO2 SLP224 T12781306 FZRANO
PASK 250056Z AUTO 23006KT 7SM CLR M27/M30 A3020 RMK AO2 SLP224 T12721300 FZRANO
PASK 242356Z AUTO 25004KT 10SM CLR M26/M29 A3020 RMK AO2 SLP223 6//// T12611289 11261 21300 58002 FZRANO
PASK 242256Z AUTO 25006KT 10SM CLR M26/M29 A3021 RMK AO2 SLP225 T12611289 FZRANO
PASK 242156Z AUTO 24003KT 10SM CLR M26/M29 A3021 RMK AO2 SLP227 T12611289 FZRANO
PASK 242056Z AUTO 23006KT 10SM CLR M27/M29 A3020 RMK AO2 SLP225 6//// T12721294 FZRANO
PASK 241956Z AUTO 25006KT 10SM CLR M28/M30 A3021 RMK AO2 SLP226 T12781300 FZRANO
PASK 241856Z AUTO 23004KT 10SM CLR M29/M32 RMK AO2 SLPNO T12891317 FZRANO $
PASK 241756Z AUTO 27003KT 8SM CLR M29/M32 A3020 RMK AO2 SLP224 6//// T12941322 11267 21294 53000 FZRANO
PASK 241656Z AUTO 24007KT 10SM CLR M28/M30 A3019 RMK AO2 SLP222 T12781300 FZRANO
PASK 241556Z AUTO 24006KT 10SM CLR M27/M29 A3019 RMK AO2 SLP221 T12671294 FZRANO
PASK 241456Z AUTO 24007KT 10SM CLR M27/M29 A3020 RMK AO2 SLP224 6//// T12671289 50001 FZRANO
PASK 241356Z AUTO 24008KT 10SM CLR M27/M29 A3020 RMK AO2 SLP225 T12671294 FZRANO
PASK 241256Z AUTO 24007KT 10SM CLR M27/M29 A3020 RMK AO2 SLP224 T12721294 FZRANO
PASK 241156Z AUTO 25005KT 10SM CLR M27/M29 A3020 RMK AO2 SLP223 6//// 7//// T12671294 11239 21267 FZRANO
PASK 241056Z AUTO 24008KT 10SM CLR M26/M29 A3020 RMK AO2 SLP222 T12611289 FZRANO
PASK 240956Z AUTO 24006KT 10SM CLR M26/M28 RMK AO2 SLPNO T12611283 FZRANO $
PASK 240856Z AUTO 26008KT 10SM CLR M26/M28 A3017 RMK AO2 SLP215 6//// T12561278 411671256 53010 FZRANO
PASK 240756Z AUTO 24007KT 10SM CLR M25/M28 A3017 RMK AO2 SLP212 T12501278 FZRANO
PASK 240656Z AUTO 25006KT 10SM CLR M24/M27 A3015 RMK AO2 SLP207 T12441272 FZRANO
PASK 240556Z AUTO 25007KT 10SM FEW001 M24/M26 A3015 RMK AO2 SLP205 6//// T12391261 11183 21239 51010 FZRANO
PASK 240456Z AUTO 25011KT 10SM CLR M23/M26 A3014 RMK AO2 SLP203 T12331256 FZRANO
PASK 240356Z AUTO 26008KT 10SM CLR M22/M25 A3013 RMK AO2 SLP199 T12221250 FZRANO
PASK 240256Z AUTO 27010KT 10SM OVC070 M20/M23 A3012 RMK AO2 SLP195 60000 T12001228 53014 FZRANO
PASK 240156Z AUTO 27008KT 10SM OVC070 M19/M22 A3010 RMK AO2 SNE46 SLP190 P0000 T11891217 FZRANO
PASK 240056Z AUTO 27011KT 9SM -SN OVC070 M18/M21 A3009 RMK AO2 SNB36 SLP186 P0000 T11831211 FZRANO
PASK 232356Z AUTO 26011KT 10SM OVC070 M18/M21 A3008 RMK AO2 SLP182 60000 T11831206 11172 21183 51008 FZRANO
PASK 232256Z AUTO 26012KT 10SM OVC070 M18/M21 A3007 RMK AO2 SNE22 SLP180 P0000 T11781206 FZRANO
PASK 232156Z AUTO 27010KT 9SM -SN OVC070 M18/M20 A3007 RMK AO2 SNE2059B38 SLP178 P0000 T11781200 FZRANO
PASK 232056Z AUTO 26009KT 9SM -SN OVC070 M18/M20 A3005 RMK AO2 SNE31B48 SLP174 P0000 60000 T11781200 51011 FZRANO
PASK 231956Z AUTO 26009KT 9SM -SN OVC075 M17/M19 A3004 RMK AO2 SLP170 P0000 T11721194 FZRANO
PASK 231856Z AUTO 26010KT 9SM -SN OVC070 M17/M19 A3003 RMK AO2 SNB09 SLP166 P0000 T11721194 FZRANO
PASK 231756Z AUTO 27008KT 10SM OVC070 M17/M19 A3002 RMK AO2 SNE23 SLP162 P0000 60000 T11721194 11167 21183 53009 FZRANO
PASK 231737Z AUTO 27007KT 10SM SCT018 OVC070 M17/M19 A3002 RMK AO2 SNE23 P0000 FZRANO
PASK 231656Z AUTO 27007KT 9SM -SN OVC020 M17/M19 A3001 RMK AO2 SLP159 P0000 T11671194 FZRANO
PASK 231556Z AUTO 26007KT 9SM -SN OVC029 M17/M19 A3000 RMK AO2 SLP156 P0000 T11721194 FZRANO